Time;durP1;ratioP1;P1;durP2;ratioP2;P2;SDS_P1;SDS_P2;PMS_P1;PMS_P2;Temp;Humidity;BMP_temperature;BMP_pressure;BME280_temperature;BME280_humidity;BME280_pressure;Samples;Min_cycle;Max_cycle;Signal;HPM_P1;HPM_P2
2023/05/22 00:01:06;;;;;;;15.47;9.50;;;14.30;86.60;;;;;;5091803;28;20435;-68
2023/05/22 00:03:35;;;;;;;14.97;9.43;;;14.30;87.30;;;;;;5092350;28;20466;-68
2023/05/22 00:06:02;;;;;;;11.87;9.10;;;14.20;87.40;;;;;;5091779;28;20976;-68
2023/05/22 00:08:29;;;;;;;15.70;9.10;;;14.20;87.20;;;;;;5092144;28;20439;-68
2023/05/22 00:10:57;;;;;;;14.03;8.83;;;14.20;87.00;;;;;;5091544;28;20460;-68
2023/05/22 00:13:24;;;;;;;14.63;7.67;;;14.20;87.50;;;;;;5092031;28;20439;-68
2023/05/22 00:15:53;;;;;;;11.30;10.20;;;14.10;87.70;;;;;;5091544;28;20502;-68
2023/05/22 00:18:20;;;;;;;11.60;9.30;;;14.10;88.00;;;;;;5091953;28;20496;-68
2023/05/22 00:20:50;;;;;;;12.10;10.80;;;14.10;88.40;;;;;;5092242;28;20462;-68
2023/05/22 00:23:17;;;;;;;13.97;9.00;;;14.10;89.00;;;;;;5091980;28;20435;-68
2023/05/22 00:25:45;;;;;;;11.40;8.40;;;14.00;89.50;;;;;;5091770;28;20677;-68
2023/05/22 00:28:12;;;;;;;8.67;7.77;;;14.00;89.20;;;;;;5091487;28;20964;-68
2023/05/22 00:30:39;;;;;;;11.47;8.93;;;14.00;88.60;;;;;;5093490;28;20445;-68
2023/05/22 00:33:10;;;;;;;12.20;9.77;;;13.90;88.20;;;;;;5094963;28;20956;-68
2023/05/22 00:35:38;;;;;;;9.97;8.27;;;13.90;88.30;;;;;;5095834;28;20493;-68
2023/05/22 00:38:08;;;;;;;12.20;8.87;;;13.90;88.20;;;;;;5094765;28;20719;-68
2023/05/22 00:40:35;;;;;;;12.83;9.97;;;13.90;88.60;;;;;;5095538;28;20442;-68
2023/05/22 00:43:07;;;;;;;13.40;8.47;;;13.80;88.60;;;;;;5094623;28;20439;-68
2023/05/22 00:45:34;;;;;;;12.50;8.90;;;13.80;89.00;;;;;;5095446;28;20798;-67
2023/05/22 00:48:01;;;;;;;11.03;9.37;;;13.80;89.40;;;;;;5095136;28;20961;-68
2023/05/22 00:50:28;;;;;;;11.70;9.30;;;13.70;90.00;;;;;;5095280;28;20431;-67
2023/05/22 00:52:55;;;;;;;10.90;7.93;;;13.70;89.90;;;;;;5094926;28;20435;-67
2023/05/22 00:55:24;;;;;;;11.63;10.10;;;13.70;90.10;;;;;;5095060;28;20439;-67
2023/05/22 00:57:52;;;;;;;12.07;8.90;;;13.60;90.00;;;;;;5095069;28;20447;-67
2023/05/22 01:00:20;;;;;;;15.23;9.67;;;13.60;90.10;;;;;;5095122;28;20483;-67
2023/05/22 01:02:47;;;;;;;10.83;8.80;;;13.60;90.20;;;;;;5094349;28;20458;-67
2023/05/22 01:05:16;;;;;;;12.97;9.03;;;13.60;90.40;;;;;;5095126;28;20435;-67
2023/05/22 01:07:45;;;;;;;11.63;8.90;;;13.60;90.50;;;;;;5094334;28;20479;-67
2023/05/22 01:10:13;;;;;;;11.63;10.47;;;13.60;90.70;;;;;;5094569;28;20488;-67
2023/05/22 01:12:51;;;;;;;13.80;9.53;;;13.50;90.90;;;;;;5094428;28;20447;-67
2023/05/22 01:15:27;;;;;;;10.13;9.03;;;13.50;91.20;;;;;;5094638;28;20470;-67
2023/05/22 01:18:05;;;;;;;11.93;7.80;;;13.50;91.30;;;;;;5094546;28;20443;-68
2023/05/22 01:20:38;;;;;;;9.63;8.40;;;13.40;90.40;;;;;;5094323;28;20492;-67
2023/05/22 01:23:25;;;;;;;10.13;8.63;;;13.30;90.10;;;;;;5074483;28;20440;-67
2023/05/22 01:26:08;;;;;;;13.00;8.17;;;13.20;90.20;;;;;;5077686;28;20454;-67
2023/05/22 01:29:04;;;;;;;11.33;9.40;;;13.20;90.50;;;;;;5094106;28;20968;-67
2023/05/22 01:31:39;;;;;;;10.33;9.10;;;13.10;90.60;;;;;;5094149;28;20446;-67
2023/05/22 01:34:10;;;;;;;12.67;9.20;;;13.10;90.20;;;;;;5094546;28;20477;-67
2023/05/22 01:36:38;;;;;;;13.98;8.98;;;13.00;90.10;;;;;;5094139;28;20478;-67
2023/05/22 01:39:06;;;;;;;13.20;9.30;;;12.90;90.50;;;;;;5094265;28;20193;-67
2023/05/22 01:41:34;;;;;;;13.43;9.88;;;12.80;90.90;;;;;;5093354;28;20462;-67
2023/05/22 01:44:02;;;;;;;11.60;9.57;;;12.70;91.30;;;;;;5093350;28;20262;-67
2023/05/22 01:46:31;;;;;;;17.23;9.70;;;12.70;91.70;;;;;;5093991;28;20524;-67
2023/05/22 01:48:59;;;;;;;14.88;11.73;;;12.70;91.90;;;;;;5093824;28;20447;-67
2023/05/22 01:51:36;;;;;;;15.53;9.40;;;12.70;92.30;;;;;;5094090;28;20704;-67
2023/05/22 01:54:10;;;;;;;17.20;11.77;;;12.70;92.70;;;;;;5093798;28;20476;-67
2023/05/22 01:56:42;;;;;;;12.87;11.40;;;12.70;93.10;;;;;;5093930;28;20197;-67
2023/05/22 01:59:17;;;;;;;12.80;10.33;;;12.70;93.30;;;;;;5093635;28;20496;-67
2023/05/22 02:01:44;;;;;;;12.95;10.65;;;12.70;93.30;;;;;;5094292;28;20442;-67
2023/05/22 02:04:15;;;;;;;12.03;9.83;;;12.80;93.40;;;;;;5093335;28;20189;-67
2023/05/22 02:06:43;;;;;;;11.02;8.30;;;12.80;93.10;;;;;;5093906;28;20474;-67
2023/05/22 02:09:11;;;;;;;10.07;8.88;;;12.70;92.40;;;;;;5093215;28;20181;-67
2023/05/22 02:11:38;;;;;;;10.65;8.68;;;12.60;92.10;;;;;;5093727;28;20644;-67
2023/05/22 02:14:08;;;;;;;10.60;8.63;;;12.50;91.80;;;;;;5093474;28;20238;-67
2023/05/22 02:16:36;;;;;;;12.00;9.57;;;12.40;91.70;;;;;;5093713;28;20753;-67
2023/05/22 02:19:05;;;;;;;10.32;8.32;;;12.30;92.60;;;;;;5093094;28;20442;-67
2023/05/22 02:21:34;;;;;;;13.27;9.50;;;12.30;92.60;;;;;;5093500;28;20185;-67
2023/05/22 02:24:02;;;;;;;12.48;10.68;;;12.30;92.50;;;;;;5093076;28;20235;-67
2023/05/22 02:26:30;;;;;;;11.75;8.90;;;12.30;92.80;;;;;;5093147;28;20217;-67
2023/05/22 02:28:58;;;;;;;12.18;9.52;;;12.20;92.70;;;;;;5092691;28;20197;-67
2023/05/22 02:31:25;;;;;;;11.45;8.65;;;12.10;92.40;;;;;;5092895;28;20181;-67
2023/05/22 02:33:52;;;;;;;11.88;8.45;;;12.10;92.60;;;;;;5093344;28;20189;-67
2023/05/22 02:36:19;;;;;;;12.52;9.23;;;12.00;92.80;;;;;;5092806;28;20262;-67
2023/05/22 02:38:47;;;;;;;11.80;9.98;;;12.00;93.30;;;;;;5093128;28;20196;-67
2023/05/22 02:41:14;;;;;;;11.75;9.73;;;12.00;93.50;;;;;;5092698;28;20646;-67
2023/05/22 02:43:41;;;;;;;12.18;10.00;;;12.00;93.80;;;;;;5093313;28;20189;-67
2023/05/22 02:46:09;;;;;;;12.18;10.43;;;12.10;93.70;;;;;;5092560;28;20185;-67
2023/05/22 02:48:36;;;;;;;11.10;8.85;;;12.00;93.40;;;;;;5093132;28;20193;-67
2023/05/22 02:51:03;;;;;;;20.15;8.43;;;12.00;93.30;;;;;;5092577;28;20250;-66
2023/05/22 02:53:30;;;;;;;11.98;9.45;;;12.00;92.80;;;;;;5092481;28;20246;-67
2023/05/22 02:55:59;;;;;;;11.73;9.77;;;12.00;93.20;;;;;;5092726;28;20640;-67
2023/05/22 02:58:27;;;;;;;14.55;10.77;;;12.00;93.50;;;;;;5092910;28;20185;-67
2023/05/22 03:00:54;;;;;;;12.88;10.57;;;12.00;94.00;;;;;;5092363;28;20639;-66
2023/05/22 03:03:23;;;;;;;10.50;8.40;;;11.90;94.60;;;;;;5092494;28;20189;-67
2023/05/22 03:05:52;;;;;;;10.70;8.88;;;11.90;94.90;;;;;;5092694;28;20181;-67
2023/05/22 03:08:19;;;;;;;12.50;9.73;;;12.00;95.10;;;;;;5092751;28;20221;-68
2023/05/22 03:10:47;;;;;;;10.52;8.65;;;12.00;94.70;;;;;;5092050;28;20272;-67
2023/05/22 03:13:15;;;;;;;12.38;9.90;;;11.90;94.00;;;;;;5092591;28;20232;-67
2023/05/22 03:15:43;;;;;;;11.90;8.55;;;11.90;94.00;;;;;;5092306;28;20621;-67
2023/05/22 03:18:10;;;;;;;11.27;9.10;;;11.90;94.20;;;;;;5092559;28;20188;-67
2023/05/22 03:20:37;;;;;;;12.00;9.25;;;11.90;94.20;;;;;;5092538;28;20193;-67
2023/05/22 03:23:05;;;;;;;11.25;9.05;;;11.90;94.10;;;;;;5092772;28;20269;-67
2023/05/22 03:25:32;;;;;;;13.07;9.30;;;11.90;93.80;;;;;;5092197;28;20200;-67
2023/05/22 03:27:59;;;;;;;12.25;10.20;;;11.80;93.90;;;;;;5092442;28;20258;-67
2023/05/22 03:30:28;;;;;;;12.73;8.63;;;11.80;94.20;;;;;;5092024;28;20192;-67
2023/05/22 03:32:55;;;;;;;11.43;8.85;;;11.70;94.70;;;;;;5092706;28;20208;-67
2023/05/22 03:35:24;;;;;;;10.68;9.20;;;11.70;94.90;;;;;;5092053;28;20720;-67
2023/05/22 03:37:51;;;;;;;9.93;8.77;;;11.70;94.70;;;;;;5092601;28;20204;-67
2023/05/22 03:40:18;;;;;;;10.68;9.45;;;11.70;94.70;;;;;;5092018;28;20666;-67
2023/05/22 03:42:49;;;;;;;10.82;9.55;;;11.70;95.10;;;;;;5092686;28;20712;-67
2023/05/22 03:45:17;;;;;;;14.02;10.85;;;11.70;95.30;;;;;;5092087;28;20573;-67
2023/05/22 03:47:45;;;;;;;12.88;10.95;;;11.70;95.20;;;;;;5092355;28;20617;-68
2023/05/22 03:50:12;;;;;;;12.40;9.40;;;11.70;95.30;;;;;;5091619;28;20242;-67
2023/05/22 03:52:39;;;;;;;12.35;9.45;;;11.80;95.50;;;;;;5092209;28;20189;-67
2023/05/22 03:55:08;;;;;;;14.05;10.30;;;11.80;95.50;;;;;;5091858;28;20535;-67
2023/05/22 03:57:35;;;;;;;15.57;10.10;;;11.90;95.20;;;;;;5092252;28;20189;-67
2023/05/22 04:00:08;;;;;;;9.93;8.23;;;11.90;95.20;;;;;;5091658;28;20670;-67
2023/05/22 04:02:38;;;;;;;11.55;9.55;;;11.90;95.20;;;;;;5092635;28;20189;-67
2023/05/22 04:05:09;;;;;;;17.92;9.23;;;11.90;95.20;;;;;;5091347;28;20197;-67
2023/05/22 04:07:36;;;;;;;11.52;9.50;;;12.00;95.40;;;;;;5096429;28;20277;-68
2023/05/22 04:10:04;;;;;;;9.93;8.70;;;12.10;95.20;;;;;;5095932;28;20185;-67
2023/05/22 04:12:31;;;;;;;9.25;7.47;;;12.10;95.30;;;;;;5096329;28;20292;-67
2023/05/22 04:14:58;;;;;;;11.52;9.45;;;12.10;95.10;;;;;;5095551;28;20185;-68
2023/05/22 04:17:31;;;;;;;11.73;9.38;;;12.10;95.30;;;;;;5096092;28;20192;-67
2023/05/22 04:19:59;;;;;;;12.38;10.23;;;12.20;95.60;;;;;;5086912;28;20247;-67
2023/05/22 04:22:29;;;;;;;11.60;8.82;;;12.20;95.10;;;;;;5087377;28;20202;-67
2023/05/22 04:24:58;;;;;;;13.25;9.23;;;12.20;95.10;;;;;;5085177;28;20197;-67
2023/05/22 04:27:25;;;;;;;13.07;9.82;;;12.20;94.90;;;;;;5092998;28;20659;-67
2023/05/22 04:29:53;;;;;;;14.73;9.88;;;12.20;95.30;;;;;;5083302;28;20598;-67
2023/05/22 04:32:22;;;;;;;19.05;10.45;;;12.30;95.20;;;;;;5075081;28;20272;-67
2023/05/22 04:34:50;;;;;;;11.25;9.50;;;12.40;95.20;;;;;;5082595;28;20189;-67
2023/05/22 04:37:18;;;;;;;12.80;9.80;;;12.40;95.20;;;;;;5083231;28;20608;-67
2023/05/22 04:39:47;;;;;;;10.90;9.10;;;12.50;95.10;;;;;;5085266;28;20224;-67
2023/05/22 04:42:19;;;;;;;20.53;8.23;;;12.60;94.90;;;;;;5093073;28;21773;-67
2023/05/22 04:44:47;;;;;;;11.90;9.07;;;12.70;95.30;;;;;;5092709;28;20439;-67
2023/05/22 04:47:17;;;;;;;11.80;9.60;;;12.70;96.10;;;;;;5074644;28;20552;-67
2023/05/22 04:49:44;;;;;;;12.40;10.50;;;12.80;95.80;;;;;;5080491;28;20452;-68
2023/05/22 04:52:15;;;;;;;16.40;9.73;;;12.90;96.00;;;;;;5094302;28;20431;-67
2023/05/22 04:54:43;;;;;;;12.50;8.87;;;13.00;95.90;;;;;;5094096;28;20485;-68
2023/05/22 04:57:16;;;;;;;10.63;9.23;;;13.10;95.80;;;;;;5089753;28;20848;-68
2023/05/22 04:59:44;;;;;;;11.40;9.97;;;13.20;95.70;;;;;;5092593;28;20484;-68
2023/05/22 05:02:14;;;;;;;14.33;8.83;;;13.30;95.60;;;;;;5091600;28;20530;-68
2023/05/22 05:04:42;;;;;;;11.80;10.27;;;13.40;95.20;;;;;;5074397;28;20999;-68
2023/05/22 05:07:18;;;;;;;12.43;8.40;;;13.50;94.70;;;;;;5074450;28;20471;-68
2023/05/22 05:09:45;;;;;;;12.90;8.80;;;13.50;93.80;;;;;;5088635;28;20857;-68
2023/05/22 05:12:13;;;;;;;11.80;8.00;;;13.50;93.70;;;;;;5092009;28;20448;-68
2023/05/22 05:14:41;;;;;;;10.57;9.43;;;13.60;93.80;;;;;;5091486;28;20443;-68
2023/05/22 05:17:08;;;;;;;12.97;8.43;;;13.70;93.70;;;;;;5075286;28;20483;-68
2023/05/22 05:19:35;;;;;;;10.57;8.80;;;13.70;93.90;;;;;;5074234;28;20432;-68
2023/05/22 05:22:02;;;;;;;9.60;8.60;;;13.90;94.20;;;;;;5082429;28;20443;-68
2023/05/22 05:24:29;;;;;;;10.60;8.67;;;14.00;94.10;;;;;;5091993;28;20439;-68
2023/05/22 05:26:56;;;;;;;12.17;9.20;;;14.10;94.20;;;;;;5091444;28;20478;-68
2023/05/22 05:29:25;;;;;;;10.50;8.70;;;14.30;94.30;;;;;;5091177;28;20436;-68
2023/05/22 05:31:52;;;;;;;10.50;8.67;;;14.40;94.40;;;;;;5079746;28;20439;-68
2023/05/22 05:34:19;;;;;;;12.07;9.60;;;14.60;94.70;;;;;;5082350;28;20516;-68
2023/05/22 05:36:51;;;;;;;16.67;10.20;;;14.70;95.00;;;;;;5086579;28;20993;-69
2023/05/22 05:39:19;;;;;;;11.73;8.40;;;14.90;95.40;;;;;;5088586;28;20436;-68
2023/05/22 05:41:46;;;;;;;15.47;10.07;;;15.00;95.70;;;;;;5091280;28;20443;-68
2023/05/22 05:44:13;;;;;;;11.03;9.80;;;15.20;95.90;;;;;;5077479;28;20440;-69
2023/05/22 05:46:42;;;;;;;12.27;9.47;;;15.40;95.70;;;;;;5085975;28;20435;-69
2023/05/22 05:49:10;;;;;;;14.13;9.60;;;15.60;95.80;;;;;;5090735;28;21019;-68
2023/05/22 05:51:37;;;;;;;12.17;8.70;;;15.70;95.90;;;;;;5087646;28;20990;-68
2023/05/22 05:54:05;;;;;;;11.40;8.13;;;15.80;96.00;;;;;;5090841;28;20528;-68
2023/05/22 05:56:32;;;;;;;12.07;9.70;;;16.00;95.90;;;;;;5090844;28;20534;-68
2023/05/22 05:58:59;;;;;;;12.50;10.40;;;16.10;96.00;;;;;;5088184;28;20518;-68
2023/05/22 06:01:26;;;;;;;10.47;8.70;;;16.30;96.00;;;;;;5082009;28;20478;-68
2023/05/22 06:03:55;;;;;;;10.80;8.90;;;16.40;96.10;;;;;;5085382;28;20440;-68
2023/05/22 06:06:24;;;;;;;9.77;8.20;;;16.60;96.10;;;;;;5087781;28;20439;-68
2023/05/22 06:08:56;;;;;;;10.70;9.60;;;16.80;96.30;;;;;;5083673;28;20483;-69
2023/05/22 06:11:38;;;;;;;8.70;7.80;;;16.90;96.30;;;;;;5080479;28;20439;-69
2023/05/22 06:14:20;;;;;;;8.57;7.00;;;17.10;96.20;;;;;;5086126;28;20443;-68
2023/05/22 06:16:50;;;;;;;9.13;6.83;;;17.20;95.30;;;;;;5082262;28;20559;-68
2023/05/22 06:19:19;;;;;;;7.70;6.50;;;17.40;93.90;;;;;;5083767;28;20435;-68
2023/05/22 06:21:46;;;;;;;7.10;5.90;;;17.60;92.30;;;;;;5081695;28;20473;-69
2023/05/22 06:24:18;;;;;;;8.33;6.40;;;17.70;90.60;;;;;;5083424;28;20481;-68
2023/05/22 06:26:45;;;;;;;7.23;6.50;;;17.90;90.30;;;;;;5083769;28;20531;-68
2023/05/22 06:29:20;;;;;;;9.87;6.00;;;18.00;85.30;;;;;;5083849;28;20487;-68
2023/05/22 06:31:50;;;;;;;9.07;6.63;;;18.20;85.90;;;;;;5085569;28;20573;-68
2023/05/22 06:34:19;;;;;;;8.63;5.80;;;18.30;85.70;;;;;;5084141;28;20476;-68
2023/05/22 06:36:49;;;;;;;8.80;6.87;;;18.50;84.60;;;;;;5088845;28;20514;-68
2023/05/22 06:39:16;;;;;;;9.13;6.23;;;18.60;81.20;;;;;;5085559;28;20826;-68
2023/05/22 06:41:44;;;;;;;7.00;5.70;;;18.70;77.80;;;;;;5088918;28;20855;-68
2023/05/22 06:44:12;;;;;;;6.27;5.63;;;18.90;77.80;;;;;;5084247;28;20794;-69
2023/05/22 06:46:39;;;;;;;8.00;6.40;;;19.10;76.40;;;;;;5088692;28;20489;-68
2023/05/22 06:49:07;;;;;;;7.27;5.53;;;19.20;75.30;;;;;;5092923;28;20515;-68
2023/05/22 06:51:35;;;;;;;9.20;6.17;;;19.40;75.20;;;;;;5087334;28;20479;-68
2023/05/22 06:54:08;;;;;;;8.30;6.10;;;19.50;75.80;;;;;;5089632;28;20439;-69
2023/05/22 06:56:35;;;;;;;6.67;5.90;;;19.60;75.80;;;;;;5088582;28;20451;-69
2023/05/22 06:59:08;;;;;;;6.97;5.67;;;19.90;75.10;;;;;;5083577;28;20462;-68
2023/05/22 07:01:35;;;;;;;7.13;5.40;;;20.00;73.50;;;;;;5090465;28;20474;-69
2023/05/22 07:04:03;;;;;;;8.70;5.10;;;20.10;72.40;;;;;;5092301;28;20933;-69
2023/05/22 07:06:32;;;;;;;8.77;5.80;;;20.30;71.50;;;;;;5084142;28;20451;-69
2023/05/22 07:09:04;;;;;;;9.63;6.90;;;20.40;71.90;;;;;;5087910;28;20561;-69
2023/05/22 07:11:31;;;;;;;7.17;6.23;;;20.60;72.80;;;;;;5085299;28;20453;-69
2023/05/22 07:13:58;;;;;;;7.70;6.10;;;20.80;72.80;;;;;;5087973;28;20488;-68
2023/05/22 07:16:26;;;;;;;9.23;6.07;;;20.90;72.70;;;;;;5092365;28;20512;-68
2023/05/22 07:18:52;;;;;;;8.20;5.67;;;21.10;72.90;;;;;;5085220;28;20500;-69
2023/05/22 07:21:22;;;;;;;9.10;6.50;;;21.30;73.10;;;;;;5087527;28;20448;-68
2023/05/22 07:23:49;;;;;;;6.93;5.90;;;21.50;73.80;;;;;;5088709;28;20537;-68
2023/05/22 07:26:17;;;;;;;7.47;6.00;;;21.60;74.70;;;;;;5088222;28;20982;-68
2023/05/22 07:28:44;;;;;;;11.40;6.20;;;21.90;74.20;;;;;;5086346;28;20578;-69
2023/05/22 07:31:11;;;;;;;8.37;6.23;;;22.00;72.60;;;;;;5084750;28;20477;-69
2023/05/22 07:33:42;;;;;;;8.20;5.83;;;22.20;72.10;;;;;;5084215;28;20839;-68
2023/05/22 07:36:10;;;;;;;11.27;6.77;;;22.40;72.60;;;;;;5085396;28;20486;-69
2023/05/22 07:38:37;;;;;;;6.87;5.70;;;22.60;72.00;;;;;;5091983;28;20937;-69
2023/05/22 07:41:04;;;;;;;8.73;5.97;;;22.80;70.40;;;;;;5092145;28;20781;-69
2023/05/22 07:43:32;;;;;;;8.50;6.47;;;23.00;68.80;;;;;;5087443;28;20889;-69
2023/05/22 07:46:04;;;;;;;8.47;4.93;;;23.10;66.90;;;;;;5088667;28;20467;-69
2023/05/22 07:48:31;;;;;;;6.20;5.00;;;23.20;64.70;;;;;;5088998;28;20541;-69
2023/05/22 07:50:58;;;;;;;7.60;5.33;;;23.40;62.90;;;;;;5091790;28;20443;-69
2023/05/22 07:53:28;;;;;;;7.53;4.90;;;23.60;61.90;;;;;;5093709;28;20450;-69
2023/05/22 07:55:55;;;;;;;7.73;5.97;;;23.70;63.10;;;;;;5087247;28;20427;-69
2023/05/22 07:58:24;;;;;;;8.67;5.07;;;23.90;61.60;;;;;;5092157;28;20462;-69
2023/05/22 08:00:53;;;;;;;6.10;5.30;;;23.90;59.20;;;;;;5091894;28;20785;-69
2023/05/22 08:03:20;;;;;;;7.30;5.60;;;24.00;57.90;;;;;;5092161;28;20508;-68
2023/05/22 08:05:48;;;;;;;6.73;6.03;;;24.10;58.80;;;;;;5090292;28;20435;-69
2023/05/22 08:08:20;;;;;;;6.13;5.50;;;24.20;57.60;;;;;;5089371;28;20479;-69
2023/05/22 08:10:47;;;;;;;6.80;5.50;;;24.30;57.20;;;;;;5091659;28;20922;-69
2023/05/22 08:13:15;;;;;;;6.13;5.50;;;24.50;57.40;;;;;;5091604;28;20443;-69
2023/05/22 08:15:42;;;;;;;5.53;4.90;;;24.60;57.20;;;;;;5090613;28;20984;-69
2023/05/22 08:18:11;;;;;;;10.33;6.30;;;24.70;56.40;;;;;;5087748;28;20542;-69
2023/05/22 08:20:37;;;;;;;12.53;8.47;;;24.80;54.50;;;;;;5091051;28;20439;-69
2023/05/22 08:23:07;;;;;;;15.03;6.10;;;24.90;54.70;;;;;;5091707;28;20534;-69
2023/05/22 08:25:34;;;;;;;15.07;9.77;;;25.10;54.60;;;;;;5090713;28;20866;-69
2023/05/22 08:28:00;;;;;;;10.30;6.70;;;25.20;54.60;;;;;;5090294;28;20500;-69
2023/05/22 08:30:27;;;;;;;7.20;5.40;;;25.30;54.20;;;;;;5089653;28;20466;-69
2023/05/22 08:32:57;;;;;;;6.93;6.03;;;25.40;53.90;;;;;;5089251;28;20475;-69
2023/05/22 08:35:25;;;;;;;6.50;5.77;;;25.50;52.80;;;;;;5091786;28;20979;-69
2023/05/22 08:37:52;;;;;;;8.70;5.80;;;25.60;52.20;;;;;;5088849;28;20471;-69
2023/05/22 08:40:20;;;;;;;7.87;5.60;;;25.70;52.10;;;;;;5090927;28;20434;-69
2023/05/22 08:42:53;;;;;;;7.00;5.60;;;25.80;50.80;;;;;;5091405;28;20516;-69
2023/05/22 08:45:23;;;;;;;7.57;5.63;;;25.90;51.00;;;;;;5088587;28;20443;-69
2023/05/22 08:47:55;;;;;;;8.73;5.90;;;26.10;49.80;;;;;;5091024;28;20435;-69
2023/05/22 08:50:24;;;;;;;10.67;5.40;;;26.20;50.50;;;;;;5089724;28;20435;-69
2023/05/22 08:52:56;;;;;;;6.37;5.40;;;26.30;50.40;;;;;;5088068;28;20493;-69
2023/05/22 08:55:23;;;;;;;10.13;5.60;;;26.40;48.40;;;;;;5090114;28;20534;-69
2023/05/22 08:57:56;;;;;;;7.43;6.00;;;26.60;48.10;;;;;;5091195;28;20471;-69
2023/05/22 09:00:23;;;;;;;5.73;4.47;;;26.60;49.10;;;;;;5087793;28;20467;-69
2023/05/22 09:02:52;;;;;;;8.73;6.33;;;26.70;49.10;;;;;;5090545;28;20436;-69
2023/05/22 09:05:25;;;;;;;8.60;7.20;;;26.80;48.80;;;;;;5090215;28;20441;-69
2023/05/22 09:07:54;;;;;;;7.13;5.00;;;27.00;47.70;;;;;;5083712;28;20517;-69
2023/05/22 09:10:21;;;;;;;6.73;5.63;;;27.00;46.10;;;;;;5090187;28;20510;-69
2023/05/22 09:13:02;;;;;;;8.10;5.90;;;27.10;46.90;;;;;;5086991;28;20431;-69
2023/05/22 09:15:31;;;;;;;8.47;5.70;;;27.20;46.90;;;;;;5087380;28;20479;-69
2023/05/22 09:17:58;;;;;;;7.20;5.87;;;27.30;45.10;;;;;;5090787;28;20439;-69
2023/05/22 09:20:25;;;;;;;5.23;4.60;;;27.30;44.50;;;;;;5090033;28;20443;-69
2023/05/22 09:22:53;;;;;;;6.77;5.70;;;27.30;44.80;;;;;;5090592;28;20489;-69
2023/05/22 09:25:21;;;;;;;7.20;5.77;;;27.40;46.00;;;;;;5090560;28;20443;-69
2023/05/22 09:27:53;;;;;;;7.47;5.20;;;27.60;46.50;;;;;;5086611;28;20795;-69
2023/05/22 09:30:20;;;;;;;6.93;5.80;;;27.70;44.10;;;;;;5086493;28;20565;-70
2023/05/22 09:32:49;;;;;;;6.07;5.03;;;27.80;45.00;;;;;;5090196;28;20481;-69
2023/05/22 09:35:18;;;;;;;8.80;6.33;;;27.80;45.00;;;;;;5086991;28;20486;-69
2023/05/22 09:37:45;;;;;;;7.77;5.83;;;28.00;45.80;;;;;;5090102;28;20475;-69
2023/05/22 09:40:13;;;;;;;8.50;5.97;;;28.00;45.10;;;;;;5090314;28;20496;-69
2023/05/22 09:42:45;;;;;;;9.40;5.33;;;28.20;44.90;;;;;;5087685;28;20449;-69
2023/05/22 09:45:12;;;;;;;6.30;5.20;;;28.30;45.00;;;;;;5088022;28;20528;-70
2023/05/22 09:47:40;;;;;;;5.73;5.00;;;28.30;44.10;;;;;;5088325;28;20785;-69
2023/05/22 09:50:11;;;;;;;14.97;6.30;;;28.50;44.80;;;;;;5087963;28;20542;-69
2023/05/22 09:52:38;;;;;;;7.03;5.50;;;28.60;44.60;;;;;;5081908;28;20468;-69
2023/05/22 09:55:07;;;;;;;6.53;5.53;;;28.70;45.10;;;;;;5089952;28;20446;-69
2023/05/22 09:57:42;;;;;;;7.20;5.37;;;28.80;44.10;;;;;;5089924;28;20446;-69
2023/05/22 10:00:14;;;;;;;6.60;5.27;;;28.90;44.00;;;;;;5088444;28;20493;-69
2023/05/22 10:02:44;;;;;;;5.63;5.03;;;28.90;43.50;;;;;;5087144;28;20444;-68
2023/05/22 10:05:14;;;;;;;7.20;5.73;;;28.90;42.40;;;;;;5092884;28;20447;-68
2023/05/22 10:07:54;;;;;;;7.43;5.30;;;28.90;42.70;;;;;;5086965;28;20447;-68
2023/05/22 10:10:23;;;;;;;9.37;6.20;;;29.00;42.20;;;;;;5085040;28;21014;-68
2023/05/22 10:12:59;;;;;;;8.07;5.70;;;29.10;42.00;;;;;;5088080;28;20955;-68
2023/05/22 10:15:27;;;;;;;5.27;4.77;;;29.10;43.70;;;;;;5087075;28;20547;-69
2023/05/22 10:17:54;;;;;;;7.63;5.63;;;29.20;41.70;;;;;;5093403;28;20451;-69
2023/05/22 10:20:22;;;;;;;7.17;5.70;;;29.20;42.30;;;;;;5087392;28;20483;-69
2023/05/22 10:22:49;;;;;;;5.30;4.80;;;29.30;41.90;;;;;;5087148;28;20444;-69
2023/05/22 10:25:18;;;;;;;7.10;5.50;;;29.30;41.70;;;;;;5088697;28;20800;-69
2023/05/22 10:27:45;;;;;;;8.40;6.70;;;29.40;40.90;;;;;;5088336;28;20470;-69
2023/05/22 10:30:28;;;;;;;6.20;5.60;;;29.30;40.60;;;;;;5085596;28;20543;-69
2023/05/22 10:33:03;;;;;;;5.93;5.33;;;29.40;41.80;;;;;;5085457;28;20926;-68
2023/05/22 10:35:38;;;;;;;7.47;5.80;;;29.50;40.60;;;;;;5087969;28;20444;-69
2023/05/22 10:38:21;;;;;;;5.67;5.07;;;29.50;40.60;;;;;;5086339;28;20522;-69
2023/05/22 10:40:49;;;;;;;9.43;5.90;;;29.60;42.60;;;;;;5085539;28;20528;-69
2023/05/22 10:43:16;;;;;;;6.13;5.53;;;29.70;42.70;;;;;;5088483;28;20897;-69
2023/05/22 10:45:47;;;;;;;5.17;4.50;;;29.80;43.50;;;;;;5085168;28;20444;-69
2023/05/22 10:48:14;;;;;;;8.87;6.47;;;30.00;42.90;;;;;;5086362;28;20443;-69
2023/05/22 10:50:55;;;;;;;6.07;5.40;;;30.00;40.80;;;;;;5088046;28;20497;-69
2023/05/22 10:53:24;;;;;;;8.83;6.43;;;30.00;40.30;;;;;;5086094;28;20444;-69
2023/05/22 10:55:52;;;;;;;7.37;6.13;;;30.10;39.30;;;;;;5085664;28;20431;-69
2023/05/22 10:58:27;;;;;;;7.50;6.80;;;30.10;39.00;;;;;;5087260;28;20489;-69
2023/05/22 11:01:13;;;;;;;6.67;5.80;;;30.10;40.10;;;;;;5091332;28;20450;-69
2023/05/22 11:03:57;;;;;;;6.23;5.17;;;30.10;40.20;;;;;;5086839;28;20488;-69
2023/05/22 11:06:35;;;;;;;8.60;6.80;;;30.20;40.10;;;;;;5084799;28;20432;-69
2023/05/22 11:09:29;;;;;;;8.20;6.17;;;30.30;39.40;;;;;;5084177;28;20479;-69
2023/05/22 11:12:17;;;;;;;8.53;6.00;;;30.20;41.30;;;;;;5084617;28;20485;-69
2023/05/22 11:14:49;;;;;;;7.00;6.30;;;30.30;42.50;;;;;;5083000;28;20439;-69
2023/05/22 11:17:21;;;;;;;12.70;6.47;;;30.30;41.50;;;;;;5088180;28;20456;-69
2023/05/22 11:19:58;;;;;;;8.00;6.63;;;30.50;42.60;;;;;;5085863;28;20451;-69
2023/05/22 11:22:31;;;;;;;7.70;6.90;;;30.60;42.40;;;;;;5087509;28;20788;-69
2023/05/22 11:24:59;;;;;;;8.70;6.50;;;30.70;42.20;;;;;;5085367;28;20809;-69
2023/05/22 11:27:26;;;;;;;7.30;6.40;;;30.90;41.20;;;;;;5087821;28;20436;-69
2023/05/22 11:29:58;;;;;;;6.70;6.00;;;31.00;41.10;;;;;;5084513;28;20513;-69
2023/05/22 11:32:26;;;;;;;7.43;6.27;;;31.30;41.60;;;;;;5084679;28;20501;-69
2023/05/22 11:34:55;;;;;;;7.63;6.43;;;31.50;41.70;;;;;;5086385;28;20486;-69
2023/05/22 11:37:22;;;;;;;7.80;7.00;;;31.60;40.10;;;;;;5084258;28;20786;-69
2023/05/22 11:39:56;;;;;;;6.73;6.03;;;31.80;39.90;;;;;;5088035;28;20839;-69
2023/05/22 11:42:23;;;;;;;7.50;6.80;;;32.00;39.90;;;;;;5084460;28;20912;-69
2023/05/22 11:44:50;;;;;;;8.10;6.47;;;32.10;39.20;;;;;;5082166;28;20915;-69
2023/05/22 11:47:18;;;;;;;7.00;6.10;;;32.20;37.10;;;;;;5087551;28;20927;-69
2023/05/22 11:49:46;;;;;;;6.63;6.03;;;32.30;39.10;;;;;;5087527;28;20599;-69
2023/05/22 11:52:13;;;;;;;10.93;6.10;;;32.30;38.60;;;;;;5087639;28;20528;-69
2023/05/22 11:54:40;;;;;;;8.10;6.43;;;32.30;37.50;;;;;;5082838;28;20480;-69
2023/05/22 11:57:08;;;;;;;7.90;6.07;;;32.20;36.60;;;;;;5085689;28;20484;-69
2023/05/22 11:59:35;;;;;;;7.73;6.30;;;32.10;36.30;;;;;;5086340;28;20481;-69
2023/05/22 12:02:02;;;;;;;7.63;6.60;;;32.00;36.00;;;;;;5083763;28;20954;-69
2023/05/22 12:04:29;;;;;;;8.40;5.90;;;31.90;36.20;;;;;;5086759;28;20444;-69
2023/05/22 12:06:58;;;;;;;7.20;6.43;;;31.80;37.00;;;;;;5084046;28;20442;-69
2023/05/22 12:09:26;;;;;;;9.57;6.47;;;31.80;36.30;;;;;;5083776;28;20510;-69
2023/05/22 12:11:57;;;;;;;8.53;7.73;;;31.80;36.70;;;;;;5083492;28;20487;-69
2023/05/22 12:14:27;;;;;;;7.83;6.20;;;31.80;37.00;;;;;;5079533;28;20480;-69
2023/05/22 12:16:54;;;;;;;10.27;6.90;;;31.80;37.90;;;;;;5078895;28;20488;-69
2023/05/22 12:19:21;;;;;;;9.60;7.17;;;31.80;37.80;;;;;;5091310;28;20448;-69
2023/05/22 12:21:50;;;;;;;8.90;6.77;;;32.00;37.30;;;;;;5087738;28;20493;-69
2023/05/22 12:24:22;;;;;;;8.10;6.37;;;31.90;35.20;;;;;;5086891;28;20476;-69
2023/05/22 12:26:52;;;;;;;9.20;6.40;;;31.90;35.80;;;;;;5093876;28;20489;-69
2023/05/22 12:29:19;;;;;;;8.13;6.07;;;31.80;34.90;;;;;;5089130;28;20940;-69
2023/05/22 12:31:46;;;;;;;7.00;6.30;;;31.80;35.20;;;;;;5087673;28;20471;-69
2023/05/22 12:34:17;;;;;;;6.80;6.10;;;31.90;37.50;;;;;;5088565;28;20804;-69
2023/05/22 12:36:48;;;;;;;8.13;6.50;;;32.00;37.90;;;;;;5091030;28;20445;-69
2023/05/22 12:39:20;;;;;;;8.20;5.43;;;32.00;35.80;;;;;;5094996;28;20511;-70
2023/05/22 12:41:46;;;;;;;9.57;5.90;;;32.10;35.40;;;;;;5086855;28;20448;-69
2023/05/22 12:44:15;;;;;;;6.43;5.40;;;32.10;33.80;;;;;;5090145;28;20467;-69
2023/05/22 12:46:43;;;;;;;7.60;6.73;;;32.00;32.80;;;;;;5087616;28;20507;-69
2023/05/22 12:49:10;;;;;;;6.13;5.53;;;32.00;35.00;;;;;;5091012;28;20482;-69
2023/05/22 12:51:37;;;;;;;17.13;7.27;;;32.00;35.40;;;;;;5090395;28;20440;-69